Time;durP1;ratioP1;P1;durP2;ratioP2;P2;SDS_P1;SDS_P2;PMS_P1;PMS_P2;Temp;Humidity;BMP_temperature;BMP_pressure;BME280_temperature;BME280_humidity;BME280_pressure;Samples;Min_cycle;Max_cycle;Signal;HPM_P1;HPM_P2
2023/07/31 00:02:36;;;;;;;18.05;6.15;;;;;;;14.66;100.00;100934.34;10486346;28;20044;-77
2023/07/31 00:07:37;;;;;;;17.65;6.13;;;;;;;14.67;100.00;100928.22;10486124;28;20081;-77
2023/07/31 00:12:39;;;;;;;15.30;6.63;;;;;;;14.72;100.00;100928.41;10488074;28;20068;-77
2023/07/31 00:17:39;;;;;;;19.63;6.32;;;;;;;14.70;100.00;100923.09;10483901;28;20515;-77
2023/07/31 00:22:40;;;;;;;19.88;6.63;;;;;;;14.74;100.00;100905.63;10483141;28;20052;-77
2023/07/31 00:27:44;;;;;;;18.50;6.10;;;;;;;14.68;100.00;100916.84;10486611;28;20055;-77
2023/07/31 00:32:44;;;;;;;13.60;5.10;;;;;;;14.66;100.00;100910.63;10486165;28;20097;-78
2023/07/31 00:37:45;;;;;;;13.60;5.68;;;;;;;14.66;100.00;100913.28;10470167;28;20041;-77
2023/07/31 00:42:45;;;;;;;12.73;5.97;;;;;;;14.64;100.00;100907.94;10485199;28;20029;-78
2023/07/31 00:47:46;;;;;;;12.38;4.38;;;;;;;14.71;100.00;100903.81;10487950;28;20477;-77
2023/07/31 00:52:46;;;;;;;11.20;5.68;;;;;;;14.69;100.00;100897.56;10481991;28;20090;-78
2023/07/31 00:57:47;;;;;;;9.95;4.78;;;;;;;14.68;100.00;100891.38;10467052;28;20064;-78
2023/07/31 01:02:49;;;;;;;12.15;4.78;;;;;;;14.62;100.00;100882.41;10478729;28;20101;-77
2023/07/31 01:07:59;;;;;;;14.70;6.13;;;;;;;14.59;100.00;100883.19;10485423;28;20068;-78
2023/07/31 01:12:59;;;;;;;10.50;4.00;;;;;;;14.64;100.00;100883.34;10482341;28;20373;-78
2023/07/31 01:18:00;;;;;;;30.38;6.13;;;;;;;14.66;100.00;100887.81;10484586;28;20033;-78
2023/07/31 01:23:03;;;;;;;16.70;7.30;;;;;;;14.74;100.00;100880.19;10482858;28;20496;-79
2023/07/31 01:28:06;;;;;;;10.73;5.22;;;;;;;14.71;100.00;100872.19;10486202;28;20048;-79
2023/07/31 01:33:07;;;;;;;15.18;5.45;;;;;;;14.66;100.00;100876.41;10430428;28;20091;-80
2023/07/31 01:38:08;;;;;;;12.32;4.72;;;;;;;14.64;100.00;100881.59;10460291;28;20036;-79
2023/07/31 01:43:09;;;;;;;12.45;5.70;;;;;;;14.61;100.00;100873.59;10481492;28;20407;-80
2023/07/31 01:48:09;;;;;;;16.63;6.40;;;;;;;14.56;100.00;100869.94;10489821;28;20044;-79
2023/07/31 01:53:12;;;;;;;16.60;6.85;;;;;;;14.55;100.00;100873.41;10482900;28;20576;-79
2023/07/31 01:58:12;;;;;;;16.48;6.65;;;;;;;14.59;100.00;100880.56;10484430;28;20511;-78
2023/07/31 02:03:13;;;;;;;17.98;6.57;;;;;;;14.58;100.00;100873.50;10482460;28;20135;-79
2023/07/31 02:08:13;;;;;;;20.98;7.53;;;;;;;14.60;100.00;100882.34;10465238;28;20044;-78
2023/07/31 02:13:14;;;;;;;18.45;6.80;;;;;;;14.67;100.00;100881.69;10426841;28;20449;-79
2023/07/31 02:18:14;;;;;;;18.02;5.93;;;;;;;14.73;100.00;100859.06;10439716;28;20047;-79
2023/07/31 02:23:15;;;;;;;14.70;5.60;;;;;;;14.71;100.00;100858.13;10423059;28;20041;-79
2023/07/31 02:28:15;;;;;;;18.75;6.65;;;;;;;14.73;100.00;100844.16;10439707;28;20037;-78
2023/07/31 02:33:16;;;;;;;14.88;5.90;;;;;;;14.73;100.00;100844.16;10420230;28;20568;-79
2023/07/31 02:38:16;;;;;;;17.13;6.43;;;;;;;14.73;100.00;100837.97;10433596;28;20041;-79
2023/07/31 02:43:17;;;;;;;14.95;5.65;;;;;;;14.74;100.00;100835.41;10418971;28;20072;-78
2023/07/31 02:48:17;;;;;;;12.77;5.60;;;;;;;14.74;100.00;100834.50;10437201;28;20373;-78
2023/07/31 02:53:18;;;;;;;16.55;6.43;;;;;;;14.78;100.00;100829.38;10435820;28;20047;-78
2023/07/31 02:58:18;;;;;;;17.60;6.28;;;;;;;14.86;100.00;100823.44;10441475;28;20045;-78
2023/07/31 03:03:19;;;;;;;10.75;5.22;;;;;;;14.85;100.00;100806.72;10426230;28;20083;-79
2023/07/31 03:08:20;;;;;;;16.30;6.63;;;;;;;14.89;100.00;100820.91;10471189;28;20048;-79
2023/07/31 03:13:20;;;;;;;10.38;4.95;;;;;;;14.96;100.00;100822.88;10476850;28;20571;-79
2023/07/31 03:18:21;;;;;;;20.40;5.95;;;;;;;15.00;100.00;100818.56;10461501;28;20590;-79
2023/07/31 03:23:21;;;;;;;12.88;6.22;;;;;;;15.03;100.00;100809.03;10513003;28;20044;-79
2023/07/31 03:28:22;;;;;;;14.73;5.43;;;;;;;15.03;100.00;100816.00;10479619;28;20096;-79
2023/07/31 03:33:22;;;;;;;13.52;5.45;;;;;;;15.09;100.00;100816.19;10478939;28;20403;-78
2023/07/31 03:38:23;;;;;;;15.63;5.78;;;;;;;15.14;100.00;100797.88;10479643;28;20033;-78
2023/07/31 03:43:24;;;;;;;17.45;5.50;;;;;;;15.12;100.00;100797.81;10480259;28;20084;-78
2023/07/31 03:48:25;;;;;;;10.43;5.40;;;;;;;15.09;100.00;100784.56;10480925;28;20032;-78
2023/07/31 03:53:25;;;;;;;17.70;5.15;;;;;;;15.07;100.00;100789.81;10462534;28;20064;-78
2023/07/31 03:58:26;;;;;;;12.50;6.10;;;;;;;15.10;100.00;100778.44;10483453;28;20033;-78
2023/07/31 04:03:26;;;;;;;13.80;5.82;;;;;;;15.14;100.00;100777.66;10485132;28;20128;-78
2023/07/31 04:08:27;;;;;;;11.25;4.25;;;;;;;15.20;100.00;100779.59;10518369;28;20043;-78
2023/07/31 04:13:29;;;;;;;12.50;4.82;;;;;;;15.20;100.00;100774.31;10487581;28;20044;-78
2023/07/31 04:18:30;;;;;;;;;;;;;;;15.28;100.00;100764.88;10488112;28;20036;-79
2023/07/31 04:23:31;;;;;;;10.60;6.53;;;;;;;15.29;100.00;100764.03;10487125;28;20003;-79
2023/07/31 04:28:32;;;;;;;13.30;5.93;;;;;;;15.35;100.00;100755.38;10486320;28;20484;-80
2023/07/31 04:33:32;;;;;;;14.40;6.22;;;;;;;15.35;100.00;100758.00;10484360;28;20044;-80
2023/07/31 04:38:33;;;;;;;10.63;5.68;;;;;;;15.43;100.00;100755.59;10486142;28;20041;-79
2023/07/31 04:43:33;;;;;;;11.00;6.47;;;;;;;15.47;100.00;100752.19;10473726;28;20040;-79
2023/07/31 04:48:34;;;;;;;14.15;6.10;;;;;;;15.51;100.00;100746.13;10429476;28;20033;-79
2023/07/31 04:53:35;;;;;;;14.52;8.18;;;;;;;15.54;100.00;100741.81;10442974;28;20033;-79
2023/07/31 04:58:36;;;;;;;12.80;5.80;;;;;;;15.60;100.00;100730.53;10439274;28;20064;-79
2023/07/31 05:03:36;;;;;;;13.85;5.65;;;;;;;15.63;100.00;100722.69;10442908;28;20041;-80
2023/07/31 05:08:37;;;;;;;7.57;4.30;;;;;;;15.65;100.00;100728.00;10440983;28;20139;-78
2023/07/31 05:13:38;;;;;;;10.82;5.93;;;;;;;15.66;100.00;100714.84;10442277;28;20059;-78
2023/07/31 05:18:38;;;;;;;13.68;6.40;;;;;;;15.68;100.00;100713.16;10515332;28;20047;-80
2023/07/31 05:23:39;;;;;;;11.48;6.00;;;;;;;15.60;100.00;100704.16;10515602;28;20040;-79
2023/07/31 05:28:39;;;;;;;12.00;7.22;;;;;;;15.38;100.00;100726.44;10516724;28;20039;-78
2023/07/31 05:33:40;;;;;;;13.23;6.47;;;;;;;15.13;100.00;100725.81;10466721;28;20094;-79
2023/07/31 05:38:40;;;;;;;11.55;6.10;;;;;;;15.05;100.00;100729.97;10495598;28;20500;-78
2023/07/31 05:43:42;;;;;;;27.65;8.07;;;;;;;14.99;100.00;100738.63;10480126;28;20064;-77
2023/07/31 05:48:43;;;;;;;10.25;6.38;;;;;;;14.92;100.00;100734.91;10485310;28;20033;-77
2023/07/31 05:53:43;;;;;;;11.13;5.90;;;;;;;14.92;100.00;100729.66;10479791;28;20040;-77
2023/07/31 05:58:44;;;;;;;14.98;7.10;;;;;;;14.95;100.00;100724.47;10438603;28;20519;-77
2023/07/31 06:03:45;;;;;;;26.30;11.75;;;;;;;15.03;100.00;100724.69;10443720;28;20048;-77
2023/07/31 06:08:45;;;;;;;9.80;5.28;;;;;;;15.08;100.00;100732.69;10439703;28;20049;-77
2023/07/31 06:13:47;;;;;;;9.48;5.72;;;;;;;15.13;100.00;100741.63;10466772;28;20063;-76
2023/07/31 06:18:48;;;;;;;13.30;7.50;;;;;;;15.12;100.00;100731.94;10469150;28;20058;-77
2023/07/31 06:23:49;;;;;;;15.73;7.90;;;;;;;15.04;100.00;100733.47;10481679;28;20036;-76
2023/07/31 06:28:49;;;;;;;19.40;8.45;;;;;;;14.99;100.00;100738.63;10480563;28;20123;-76
2023/07/31 06:33:51;;;;;;;33.65;7.38;;;;;;;14.92;100.00;100736.66;10476426;28;20054;-76
2023/07/31 06:38:51;;;;;;;13.60;6.95;;;;;;;14.88;100.00;100734.81;10410069;28;20513;-75
2023/07/31 06:43:52;;;;;;;11.05;6.43;;;;;;;14.86;100.00;100723.31;10441172;28;20053;-75
2023/07/31 06:48:52;;;;;;;13.60;7.57;;;;;;;14.86;100.00;100712.78;10434567;28;20040;-77
2023/07/31 06:53:53;;;;;;;12.50;6.57;;;;;;;14.85;100.00;100711.88;10441084;28;20069;-77
2023/07/31 06:58:53;;;;;;;16.02;7.18;;;;;;;14.96;100.00;100715.69;10438750;28;20044;-77
2023/07/31 07:03:54;;;;;;;13.68;6.88;;;;;;;14.90;100.00;100726.06;10439712;28;20044;-78
2023/07/31 07:08:55;;;;;;;10.13;5.43;;;;;;;14.81;100.00;100699.47;10405699;28;20599;-78
2023/07/31 07:13:56;;;;;;;8.53;5.00;;;;;;;14.71;100.00;100679.91;10439697;28;20045;-78
2023/07/31 07:18:57;;;;;;;26.50;5.57;;;;;;;14.66;100.00;100687.63;10421576;28;20079;-75
2023/07/31 07:23:58;;;;;;;8.23;4.50;;;;;;;14.60;100.00;100682.19;10470664;28;20093;-76
2023/07/31 07:28:58;;;;;;;7.68;4.03;;;;;;;14.58;100.00;100677.75;10421044;28;20091;-75
2023/07/31 07:33:59;;;;;;;7.47;4.22;;;;;;;14.63;100.00;100670.84;10444597;28;20342;-77
2023/07/31 07:38:59;;;;;;;10.00;3.88;;;;;;;14.85;100.00;100655.69;10440605;28;20037;-80
2023/07/31 07:44:00;;;;;;;11.13;5.18;;;;;;;14.97;100.00;100672.69;10427375;28;20176;-77
2023/07/31 07:49:00;;;;;;;9.05;4.45;;;;;;;15.13;100.00;100657.28;10429455;28;20065;-75
2023/07/31 07:54:01;;;;;;;9.73;5.32;;;;;;;15.31;100.00;100654.22;10444962;28;20037;-77
2023/07/31 07:59:01;;;;;;;10.77;6.28;;;;;;;15.40;100.00;100641.28;10422836;28;20041;-77
2023/07/31 08:04:02;;;;;;;9.60;4.45;;;;;;;15.50;100.00;100637.09;10425014;28;20118;-78
2023/07/31 08:09:06;;;;;;;10.10;5.93;;;;;;;15.41;100.00;100635.13;10443748;28;20136;-77
2023/07/31 08:14:06;;;;;;;9.65;6.15;;;;;;;15.26;100.00;100634.75;10446730;28;20036;-78
2023/07/31 08:19:07;;;;;;;10.18;4.72;;;;;;;15.26;100.00;100633.00;10438719;28;20033;-77
2023/07/31 08:24:08;;;;;;;8.02;4.78;;;;;;;15.24;100.00;100626.81;10413072;28;20555;-79
2023/07/31 08:29:08;;;;;;;9.80;5.47;;;;;;;15.26;100.00;100638.28;10438616;28;20033;-79
2023/07/31 08:34:09;;;;;;;10.27;5.57;;;;;;;15.30;100.00;100643.63;10445748;28;20384;-76
2023/07/31 08:39:10;;;;;;;11.65;5.47;;;;;;;15.43;100.00;100634.28;10422794;28;20044;-77
2023/07/31 08:44:10;;;;;;;9.50;6.15;;;;;;;15.35;100.00;100616.53;10425597;28;20047;-79
2023/07/31 08:49:11;;;;;;;18.45;7.95;;;;;;;15.35;100.00;100629.72;10443777;28;20052;-77
2023/07/31 08:54:12;;;;;;;20.27;6.63;;;;;;;15.48;100.00;100630.00;10480242;28;20060;-77
2023/07/31 08:59:12;;;;;;;12.30;6.53;;;;;;;15.48;100.00;100630.00;10500799;28;20053;-77
2023/07/31 09:04:13;;;;;;;11.30;5.03;;;;;;;15.41;100.00;100632.50;10500550;28;20613;-76
2023/07/31 09:09:13;;;;;;;15.60;7.10;;;;;;;15.33;100.00;100628.78;10459821;28;20528;-75
2023/07/31 09:14:14;;;;;;;8.20;5.30;;;;;;;15.39;100.00;100614.84;10435580;28;20068;-74
2023/07/31 09:19:15;;;;;;;16.60;6.32;;;;;;;15.74;100.00;100633.25;10421592;28;20045;-77
2023/07/31 09:24:27;;;;;;;16.10;6.53;;;;;;;15.99;100.00;100624.16;10422505;28;20366;-77
2023/07/31 09:29:28;;;;;;;8.80;4.97;;;;;;;16.14;100.00;100607.75;10424951;28;20087;-77
2023/07/31 09:34:41;;;;;;;10.63;4.30;;;;;;;16.17;100.00;100603.38;10441070;28;20404;-76
2023/07/31 09:39:48;;;;;;;7.72;4.80;;;;;;;16.50;100.00;100602.28;10482592;28;20280;-75
2023/07/31 09:44:48;;;;;;;5.53;3.60;;;;;;;16.94;100.00;100581.03;10458111;28;20040;-76
2023/07/31 09:49:49;;;;;;;9.05;4.63;;;;;;;17.02;100.00;100558.31;10482346;28;20047;-76
2023/07/31 09:54:49;;;;;;;10.70;4.00;;;;;;;17.78;100.00;100574.41;10480559;28;20095;-76
2023/07/31 09:59:50;;;;;;;7.43;4.00;;;;;;;17.58;100.00;100548.56;10463706;28;20396;-74
2023/07/31 10:04:51;;;;;;;8.52;5.05;;;;;;;17.71;100.00;100546.06;10414435;28;20083;-76
2023/07/31 10:09:53;;;;;;;5.75;3.75;;;;;;;17.27;100.00;100555.16;10440842;28;20098;-82
2023/07/31 10:14:54;;;;;;;7.68;3.75;;;;;;;17.26;100.00;100561.31;10422023;28;20091;-77
2023/07/31 10:19:55;;;;;;;4.45;2.35;;;;;;;17.33;100.00;100565.84;10440645;28;20128;-77
2023/07/31 10:24:55;;;;;;;6.88;2.70;;;;;;;17.06;100.00;100572.47;10422599;28;20590;-78
2023/07/31 10:29:56;;;;;;;12.07;4.57;;;;;;;16.87;100.00;100584.44;10440169;28;20032;-78
2023/07/31 10:34:57;;;;;;;5.82;3.05;;;;;;;17.07;100.00;100594.50;10424026;28;20497;-78
2023/07/31 10:40:05;;;;;;;5.53;3.25;;;;;;;17.08;100.00;100585.72;10439461;28;20795;-79
2023/07/31 10:45:08;;;;;;;6.45;2.58;;;;;;;17.08;100.00;100575.13;10441464;28;20436;-79
2023/07/31 10:50:19;;;;;;;5.68;2.95;;;;;;;17.23;100.00;100574.50;10481765;28;20438;-79
2023/07/31 10:55:33;;;;;;;4.80;2.53;;;;;;;17.21;100.00;100578.88;10461209;28;20071;-81
2023/07/31 11:00:34;;;;;;;4.47;2.30;;;;;;;17.06;100.00;100577.75;10459486;28;20388;-79
2023/07/31 11:05:44;;;;;;;7.82;3.35;;;;;;;17.21;100.00;100578.88;10447503;28;20069;-80
2023/07/31 11:10:45;;;;;;;3.78;1.95;;;;;;;17.38;100.00;100580.03;10490956;28;20132;-79
2023/07/31 11:15:45;;;;;;;6.50;2.35;;;;;;;17.47;100.00;100571.31;10488380;28;20032;-79
2023/07/31 11:20:46;;;;;;;5.40;2.72;;;;;;;17.51;100.00;100570.50;10489642;28;20040;-80
2023/07/31 11:25:47;;;;;;;11.77;2.90;;;;;;;17.48;100.00;100559.88;10488877;28;20047;-79
2023/07/31 11:30:47;;;;;;;4.97;2.05;;;;;;;17.24;100.00;100585.09;10484453;28;20047;-80
2023/07/31 11:35:49;;;;;;;6.28;2.55;;;;;;;17.26;100.00;100574.56;10478597;28;20033;-79
2023/07/31 11:40:49;;;;;;;5.13;3.17;;;;;;;17.29;100.00;100562.25;10443473;28;20089;-79
2023/07/31 11:45:57;;;;;;;5.50;2.38;;;;;;;17.45;100.00;100551.91;10504973;28;20554;-80
2023/07/31 11:50:58;;;;;;;5.82;2.83;;;;;;;17.75;100.00;100545.25;10471533;28;20114;-80
2023/07/31 11:55:59;;;;;;;6.90;3.28;;;;;;;17.87;100.00;100537.47;10479399;27;20156;-81
2023/07/31 12:01:00;;;;;;;5.33;2.43;;;;;;;17.83;100.00;100551.53;10466290;28;20405;-80
2023/07/31 12:06:00;;;;;;;5.05;3.13;;;;;;;18.00;100.00;100538.53;10443212;28;20071;-80
2023/07/31 12:11:05;;;;;;;5.90;3.03;;;;;;;18.19;100.00;100536.97;10406840;28;20033;-80
2023/07/31 12:16:05;;;;;;;5.80;3.58;;;;;;;18.53;100.00;100538.19;10472435;28;20033;-78
2023/07/31 12:21:07;;;;;;;6.38;4.00;;;;;;;18.55;100.00;100526.75;10468585;28;20044;-79
2023/07/31 12:26:15;;;;;;;7.85;3.75;;;;;;;18.49;100.00;100537.28;10489449;28;20075;-78
2023/07/31 12:31:20;;;;;;;12.00;6.10;;;;;;;18.66;100.00;100529.50;10488742;28;20048;-80
2023/07/31 12:36:23;;;;;;;9.60;3.90;;;;;;;18.70;100.00;100525.13;10460343;28;20468;-78
2023/07/31 12:41:24;;;;;;;9.70;3.97;;;;;;;19.17;100.00;100500.75;10469623;28;20041;-77
2023/07/31 12:46:24;;;;;;;8.20;3.90;;;;;;;18.69;100.00;100492.41;10482561;28;20041;-78
2023/07/31 12:51:25;;;;;;;10.93;5.25;;;;;;;18.18;100.00;100503.41;10461056;28;20145;-78
2023/07/31 12:56:26;;;;;;;9.75;4.25;;;;;;;18.00;100.00;100514.72;10442046;28;20052;-77
2023/07/31 13:01:27;;;;;;;7.78;4.13;;;;;;;18.09;100.00;100508.63;10443296;28;20036;-78
2023/07/31 13:06:27;;;;;;;9.23;5.35;;;;;;;18.32;100.00;100492.06;10440302;28;20492;-81
2023/07/31 13:11:28;;;;;;;8.57;4.30;;;;;;;18.55;100.00;100457.84;10418143;28;20051;-81
2023/07/31 13:16:28;;;;;;;11.35;6.68;;;;;;;18.97;100.00;100441.41;10441317;28;20033;-80
2023/07/31 13:21:29;;;;;;;9.50;5.07;;;;;;;19.13;100.00;100447.66;10406554;28;20041;-78
2023/07/31 13:26:29;;;;;;;7.13;4.80;;;;;;;19.07;100.00;100448.53;10429258;28;20202;-83
2023/07/31 13:31:30;;;;;;;12.18;5.20;;;;;;;18.93;100.00;100454.59;10429535;28;20050;-82
2023/07/31 13:36:30;;;;;;;7.28;3.50;;;;;;;18.81;100.00;100472.19;10434499;28;20048;-78
2023/07/31 13:41:31;;;;;;;10.23;5.03;;;;;;;18.43;100.00;100482.47;10475242;28;20033;-78
2023/07/31 13:46:32;;;;;;;8.13;4.35;;;;;;;18.28;100.00;100487.63;10467302;28;22143;-77
2023/07/31 13:51:32;;;;;;;6.05;4.38;;;;;;;18.29;100.00;100478.81;10411901;28;20542;-78
2023/07/31 13:56:33;;;;;;;9.50;4.47;;;;;;;18.42;100.00;100469.22;10426034;28;20037;-77
2023/07/31 14:01:34;;;;;;;12.75;5.30;;;;;;;18.36;100.00;100462.09;10439447;28;20035;-77
2023/07/31 14:06:34;;;;;;;7.55;4.45;;;;;;;18.42;100.00;100467.44;10440408;28;20037;-77
2023/07/31 14:11:35;;;;;;;8.82;4.80;;;;;;;18.40;100.00;100448.00;10428039;28;20051;-76
2023/07/31 14:16:35;;;;;;;6.85;4.35;;;;;;;18.72;100.00;100426.16;10436006;28;20075;-76
2023/07/31 14:21:36;;;;;;;8.75;4.95;;;;;;;18.86;100.00;100420.97;10426264;28;20472;-79
2023/07/31 14:26:36;;;;;;;9.63;4.88;;;;;;;18.72;100.00;100431.47;10407779;28;20051;-78
2023/07/31 14:31:37;;;;;;;10.23;4.22;;;;;;;18.32;100.00;100452.34;10428303;28;20099;-78
2023/07/31 14:36:37;;;;;;;9.80;5.32;;;;;;;18.20;100.00;100445.19;10418776;28;20068;-77
2023/07/31 14:41:38;;;;;;;7.95;4.10;;;;;;;18.24;100.00;100449.63;10438904;28;20041;-77
2023/07/31 14:46:39;;;;;;;10.40;3.97;;;;;;;18.03;100.00;100447.66;10423036;28;20401;-79
2023/07/31 14:51:39;;;;;;;15.35;6.13;;;;;;;17.86;100.00;100460.69;10475405;28;20037;-77
2023/07/31 14:56:40;;;;;;;15.50;7.00;;;;;;;17.48;100.00;100471.69;10477365;28;20032;-81
2023/07/31 15:01:40;;;;;;;10.77;5.45;;;;;;;16.98;100.00;100465.72;10510388;28;20071;-79
2023/07/31 15:06:41;;;;;;;8.65;4.78;;;;;;;16.77;100.00;100467.16;10480859;28;20484;-79
2023/07/31 15:11:41;;;;;;;11.55;6.40;;;;;;;16.69;100.00;100463.47;10469914;28;20052;-79
2023/07/31 15:16:42;;;;;;;11.30;6.18;;;;;;;16.66;100.00;100472.22;10473668;28;20082;-78
2023/07/31 15:21:42;;;;;;;9.57;6.43;;;;;;;16.55;100.00;100463.25;10451177;28;20070;-78
2023/07/31 15:26:43;;;;;;;13.35;6.55;;;;;;;16.54;100.00;100459.72;10491604;28;20450;-77
2023/07/31 15:31:43;;;;;;;11.52;6.63;;;;;;;16.61;100.00;100443.97;10480337;28;20046;-77
2023/07/31 15:36:44;;;;;;;12.40;5.30;;;;;;;16.68;100.00;100432.66;10510418;28;20041;-77
2023/07/31 15:41:44;;;;;;;13.70;5.63;;;;;;;16.72;100.00;100413.34;10464315;28;20046;-76
2023/07/31 15:46:45;;;;;;;6.88;3.95;;;;;;;16.67;100.00;100407.97;10485810;28;20132;-78
2023/07/31 15:51:46;;;;;;;9.07;4.35;;;;;;;16.56;100.00;100385.78;10461579;28;20396;-78
2023/07/31 15:56:46;;;;;;;7.20;3.70;;;;;;;16.50;100.00;100385.69;10475440;28;20047;-79
2023/07/31 16:01:47;;;;;;;7.70;4.50;;;;;;;16.53;100.00;100376.06;10485997;28;20040;-78
2023/07/31 16:06:47;;;;;;;14.43;4.28;;;;;;;16.58;100.00;100366.47;10472641;28;20047;-78
2023/07/31 16:11:48;;;;;;;9.70;3.47;;;;;;;16.58;100.00;100350.59;10520271;28;20044;-78
2023/07/31 16:16:48;;;;;;;9.07;2.92;;;;;;;16.60;100.00;100345.31;10487065;28;20387;-78
2023/07/31 16:21:49;;;;;;;7.63;2.60;;;;;;;16.57;100.00;100345.28;10466702;28;20512;-78
2023/07/31 16:26:49;;;;;;;6.20;2.88;;;;;;;16.57;100.00;100342.66;10487986;28;20064;-77
2023/07/31 16:31:50;;;;;;;4.55;2.38;;;;;;;16.34;100.00;100334.38;10464672;28;20040;-77
2023/07/31 16:36:51;;;;;;;10.05;3.17;;;;;;;16.20;100.00;100337.69;10425337;28;20041;-77
2023/07/31 16:41:51;;;;;;;20.55;11.73;;;;;;;16.09;100.00;100326.06;10444495;28;20036;-77
2023/07/31 16:46:52;;;;;;;8.95;5.57;;;;;;;15.98;100.00;100317.97;10444100;28;20045;-76
2023/07/31 16:51:52;;;;;;;6.55;3.60;;;;;;;15.85;100.00;100306.31;10441983;28;20074;-77
2023/07/31 16:56:53;;;;;;;5.10;2.58;;;;;;;15.77;100.00;100302.63;10443187;28;20037;-76
2023/07/31 17:01:54;;;;;;;6.90;3.42;;;;;;;15.73;100.00;100299.03;10443939;28;20079;-77
2023/07/31 17:06:54;;;;;;;6.10;3.08;;;;;;;15.75;100.00;100286.78;10431984;28;20076;-77
2023/07/31 17:11:55;;;;;;;6.93;3.53;;;;;;;15.68;100.00;100282.25;10444274;28;20041;-78
2023/07/31 17:16:55;;;;;;;8.13;3.05;;;;;;;15.67;100.00;100285.75;10442196;28;20047;-77
2023/07/31 17:21:56;;;;;;;10.52;3.95;;;;;;;15.67;100.00;100268.19;10464502;28;20068;-77
2023/07/31 17:26:56;;;;;;;23.70;16.90;;;;;;;15.65;100.00;100251.44;10437568;28;20044;-77
2023/07/31 17:31:57;;;;;;;10.07;5.20;;;;;;;15.65;100.00;100240.91;10437829;28;20041;-77
2023/07/31 17:36:58;;;;;;;9.35;3.95;;;;;;;15.69;100.00;100236.53;10438369;28;20041;-76
2023/07/31 17:41:58;;;;;;;5.47;4.28;;;;;;;15.69;100.00;100236.53;10482348;28;20040;-77
2023/07/31 17:46:59;;;;;;;7.07;3.63;;;;;;;15.65;100.00;100232.06;10452633;28;20512;-77
2023/07/31 17:52:01;;;;;;;4.80;2.75;;;;;;;15.66;100.00;100218.03;10412663;28;20044;-76
2023/07/31 17:57:01;;;;;;;6.53;3.38;;;;;;;15.61;100.00;100210.06;10471821;28;20045;-78
2023/07/31 18:02:02;;;;;;;5.55;3.25;;;;;;;15.63;100.00;100210.97;10467542;28;20391;-78
2023/07/31 18:07:03;;;;;;;7.68;3.20;;;;;;;15.60;100.00;100203.00;10491450;28;20071;-77
2023/07/31 18:12:04;;;;;;;6.13;2.72;;;;;;;15.63;100.00;100188.97;10457406;28;20385;-77
2023/07/31 18:17:04;;;;;;;4.45;2.45;;;;;;;15.61;100.00;100182.78;10438857;28;20370;-77
2023/07/31 18:22:05;;;;;;;7.40;3.10;;;;;;;15.57;100.00;100184.50;10424546;28;20032;-78
2023/07/31 18:27:06;;;;;;;4.85;2.10;;;;;;;15.59;100.00;100172.22;10437179;28;20045;-76
2023/07/31 18:32:08;;;;;;;4.80;1.80;;;;;;;15.59;100.00;100160.75;10438785;28;20083;-79
2023/07/31 18:37:09;;;;;;;4.97;2.33;;;;;;;15.55;100.00;100144.91;10430888;28;20064;-77
2023/07/31 18:42:09;;;;;;;4.82;2.78;;;;;;;15.57;100.00;100118.56;10436177;28;20048;-78
2023/07/31 18:47:10;;;;;;;6.90;4.40;;;;;;;15.60;100.00;100075.50;10439104;28;20122;-78
2023/07/31 18:52:11;;;;;;;3.92;2.40;;;;;;;15.60;100.00;100063.22;10431465;28;20053;-78
2023/07/31 18:57:11;;;;;;;4.70;2.10;;;;;;;15.57;100.00;100068.44;10438102;28;20033;-78
2023/07/31 19:02:12;;;;;;;3.65;1.50;;;;;;;15.58;100.00;100086.06;10435335;28;20037;-78
2023/07/31 19:07:12;;;;;;;2.60;1.58;;;;;;;15.57;100.00;100077.22;10439665;28;20144;-78
2023/07/31 19:12:14;;;;;;;5.82;2.25;;;;;;;15.59;100.00;100082.56;10439161;28;20087;-77
2023/07/31 19:17:15;;;;;;;5.53;2.00;;;;;;;15.65;100.00;100074.72;10435455;28;20511;-78
2023/07/31 19:22:16;;;;;;;3.95;2.67;;;;;;;15.67;100.00;100069.44;10459247;28;20041;-78
2023/07/31 19:27:16;;;;;;;4.63;2.08;;;;;;;15.67;100.00;100066.81;10441029;28;20164;-77
2023/07/31 19:32:17;;;;;;;15.93;2.83;;;;;;;15.73;100.00;100061.63;10446440;28;20041;-76
2023/07/31 19:37:18;;;;;;;4.15;1.67;;;;;;;15.78;100.00;100051.16;10441131;28;20037;-78
2023/07/31 19:42:18;;;;;;;8.25;1.88;;;;;;;15.74;100.00;100054.63;10447387;28;20159;-77
2023/07/31 19:47:19;;;;;;;6.32;2.40;;;;;;;15.75;100.00;100054.63;10447538;28;20045;-74
2023/07/31 19:52:20;;;;;;;5.40;1.60;;;;;;;15.73;100.00;100058.13;10434566;28;20049;-76
2023/07/31 19:57:20;;;;;;;3.60;1.45;;;;;;;15.77;100.00;100062.56;10446403;28;20048;-77
2023/07/31 20:02:21;;;;;;;14.20;2.13;;;;;;;15.77;100.00;100042.34;10485214;28;20485;-76
2023/07/31 20:07:21;;;;;;;5.20;2.00;;;;;;;15.82;100.00;100038.00;10485651;28;20085;-77
2023/07/31 20:12:22;;;;;;;3.25;1.73;;;;;;;15.78;100.00;100041.47;10487626;28;20379;-77
2023/07/31 20:17:24;;;;;;;3.63;1.52;;;;;;;15.78;100.00;100032.69;10466058;28;20047;-77
2023/07/31 20:22:24;;;;;;;5.03;2.15;;;;;;;15.82;100.00;100030.09;10445009;28;20029;-78
2023/07/31 20:27:25;;;;;;;6.13;2.45;;;;;;;15.74;100.00;100028.22;10445710;28;20036;-78
2023/07/31 20:32:25;;;;;;;6.75;1.83;;;;;;;15.75;100.00;100020.31;10434131;28;20528;-77
2023/07/31 20:37:26;;;;;;;3.80;1.40;;;;;;;15.79;100.00;100010.72;10443407;28;20116;-77
2023/07/31 20:42:26;;;;;;;7.28;2.67;;;;;;;15.74;100.00;100012.41;10443790;28;20041;-77
2023/07/31 20:47:27;;;;;;;3.83;2.35;;;;;;;15.70;100.00;100016.75;10419638;28;20033;-76
2023/07/31 20:52:27;;;;;;;4.28;2.15;;;;;;;15.68;100.00;99993.00;10427470;28;20043;-77
2023/07/31 20:57:28;;;;;;;4.32;1.95;;;;;;;15.69;100.00;99981.56;10445840;28;20392;-76
2023/07/31 21:02:29;;;;;;;6.63;2.53;;;;;;;15.68;100.00;99963.09;10474600;27;20547;-78
2023/07/31 21:07:29;;;;;;;36.03;22.20;;;;;;;15.67;100.00;99964.84;10447158;28;20036;-77
2023/07/31 21:12:30;;;;;;;7.13;4.03;;;;;;;15.68;100.00;99948.16;10444756;28;20451;-77
2023/07/31 21:17:30;;;;;;;9.23;4.78;;;;;;;15.64;100.00;99937.53;10443649;28;20076;-76
2023/07/31 21:22:31;;;;;;;7.47;2.90;;;;;;;15.60;100.00;99925.19;10470832;28;20489;-77
2023/07/31 21:27:31;;;;;;;5.45;2.90;;;;;;;15.59;100.00;99926.94;10485508;28;20038;-77
2023/07/31 21:32:32;;;;;;;5.32;2.40;;;;;;;15.63;100.00;99907.66;10485599;28;20654;-77
2023/07/31 21:37:32;;;;;;;6.68;2.00;;;;;;;15.64;100.00;99890.97;10482749;28;20072;-77
2023/07/31 21:42:33;;;;;;;4.00;1.70;;;;;;;15.59;100.00;99890.03;10472546;28;20036;-77
2023/07/31 21:47:33;;;;;;;3.60;2.03;;;;;;;15.59;100.00;99875.94;10484180;28;20064;-77
2023/07/31 21:52:34;;;;;;;4.85;1.77;;;;;;;15.61;100.00;99882.13;10485131;28;20480;-77
2023/07/31 21:57:35;;;;;;;4.25;1.95;;;;;;;15.61;100.00;99871.56;10478508;28;20045;-76
2023/07/31 22:02:36;;;;;;;3.03;1.20;;;;;;;15.61;100.00;99869.81;10477448;28;20440;-76
2023/07/31 22:07:36;;;;;;;4.43;1.73;;;;;;;15.57;100.00;99865.38;10513896;28;20096;-77
2023/07/31 22:12:37;;;;;;;4.88;1.65;;;;;;;15.59;100.00;99847.81;10482198;28;20143;-76
2023/07/31 22:17:38;;;;;;;5.60;2.10;;;;;;;15.56;100.00;99835.47;10472006;28;20124;-76
2023/07/31 22:22:38;;;;;;;3.25;1.80;;;;;;;15.55;100.00;99820.53;10501157;28;20124;-76
2023/07/31 22:27:39;;;;;;;3.28;1.50;;;;;;;15.54;100.00;99817.88;10472838;28;20067;-77
2023/07/31 22:32:39;;;;;;;3.42;0.90;;;;;;;15.51;100.00;99808.19;10513071;28;20581;-77
2023/07/31 22:37:40;;;;;;;4.25;0.88;;;;;;;15.52;100.00;99801.16;10477283;28;20044;-76
2023/07/31 22:42:40;;;;;;;3.63;1.55;;;;;;;15.49;100.00;99809.91;10483638;28;20193;-77